Time;durP1;ratioP1;P1;durP2;ratioP2;P2;SDS_P1;SDS_P2;PMS_P1;PMS_P2;Temp;Humidity;BMP_temperature;BMP_pressure;BME280_temperature;BME280_humidity;BME280_pressure;Samples;Min_cycle;Max_cycle;Signal;HPM_P1;HPM_P2
2022/06/08 00:00:27;;;;;;;5.20;2.00;;;;;;;16.73;100.00;100007.75;5048924;28;20511;-68
2022/06/08 00:03:06;;;;;;;2.60;1.75;;;;;;;16.79;100.00;100014.47;5049031;28;20543;-68
2022/06/08 00:05:33;;;;;;;2.58;1.77;;;;;;;16.75;100.00;100010.31;5035856;28;20045;-67
2022/06/08 00:07:59;;;;;;;2.90;2.05;;;;;;;16.68;100.00;99987.72;5044225;28;20114;-69
2022/06/08 00:10:26;;;;;;;3.63;2.35;;;;;;;16.66;100.00;99979.81;5054153;28;20041;-69
2022/06/08 00:12:53;;;;;;;3.08;2.50;;;;;;;16.76;100.00;99986.13;5054079;28;20128;-69
2022/06/08 00:15:21;;;;;;;4.78;2.58;;;;;;;16.69;100.00;99976.88;5059041;28;20057;-69
2022/06/08 00:17:48;;;;;;;5.38;3.00;;;;;;;16.82;100.00;99999.03;5051450;28;20051;-68
2022/06/08 00:20:15;;;;;;;4.60;2.88;;;;;;;16.84;100.00;99998.91;5048429;28;20414;-71
2022/06/08 00:22:41;;;;;;;3.25;2.85;;;;;;;16.79;100.00;100003.75;5052152;28;20064;-69
2022/06/08 00:25:12;;;;;;;3.40;2.80;;;;;;;16.74;100.00;99981.88;5059709;28;20120;-68
2022/06/08 00:27:38;;;;;;;4.43;2.95;;;;;;;16.78;100.00;99991.38;5054944;28;20126;-69
2022/06/08 00:30:09;;;;;;;3.40;3.10;;;;;;;16.67;100.00;99964.63;5057438;28;20074;-70
2022/06/08 00:32:36;;;;;;;3.55;2.88;;;;;;;16.79;100.00;99980.56;5051607;28;20048;-69
2022/06/08 00:35:04;;;;;;;4.35;3.38;;;;;;;16.72;100.00;99975.78;5047239;28;20053;-70
2022/06/08 00:37:31;;;;;;;3.75;3.08;;;;;;;16.60;100.00;99974.91;5051738;28;20057;-68
2022/06/08 00:39:57;;;;;;;4.30;3.10;;;;;;;16.58;100.00;99986.69;5050778;28;20159;-69
2022/06/08 00:42:25;;;;;;;4.75;3.00;;;;;;;16.58;100.00;99989.38;5050177;28;20041;-70
2022/06/08 00:45:02;;;;;;;5.35;3.38;;;;;;;16.59;100.00;99986.56;5053527;28;20431;-70
2022/06/08 00:47:36;;;;;;;3.40;3.10;;;;;;;16.59;100.00;99975.88;5047474;28;20076;-69
2022/06/08 00:50:17;;;;;;;3.63;3.13;;;;;;;16.51;100.00;99953.41;5046988;28;20557;-69
2022/06/08 00:52:46;;;;;;;3.85;3.20;;;;;;;16.55;100.00;99962.88;5048628;28;20513;-70
2022/06/08 00:55:15;;;;;;;6.63;3.38;;;;;;;16.56;100.00;99967.25;5047541;28;20040;-69
2022/06/08 00:57:47;;;;;;;5.15;3.75;;;;;;;16.47;100.00;99969.69;5059779;28;20508;-70
2022/06/08 01:00:18;;;;;;;4.10;3.70;;;;;;;16.48;100.00;99974.06;5056360;28;20118;-69
2022/06/08 01:02:45;;;;;;;4.78;3.67;;;;;;;16.44;100.00;99969.91;5047089;28;20462;-69
2022/06/08 01:05:49;;;;;;;5.00;3.70;;;;;;;16.40;100.00;99972.94;5050991;28;20049;-70
2022/06/08 01:08:27;;;;;;;4.57;4.03;;;;;;;16.38;100.00;99973.06;5026595;28;20589;-68
2022/06/08 01:10:56;;;;;;;4.68;3.92;;;;;;;16.33;100.00;99974.41;5049737;28;20045;-69
2022/06/08 01:13:26;;;;;;;7.37;4.10;;;;;;;16.30;100.00;99975.47;5045630;28;20166;-69
2022/06/08 01:15:53;;;;;;;5.68;4.72;;;;;;;16.12;100.00;99956.38;5055733;28;20080;-69
2022/06/08 01:18:20;;;;;;;5.63;4.32;;;;;;;16.21;100.00;99976.22;5048890;28;20045;-69
2022/06/08 01:20:54;;;;;;;7.10;4.47;;;;;;;16.11;100.00;99986.72;5050938;28;20606;-69
2022/06/08 01:23:22;;;;;;;5.85;4.82;;;;;;;15.96;100.00;99985.22;5050499;28;20564;-68
2022/06/08 01:25:58;;;;;;;5.13;4.50;;;;;;;15.85;100.00;99973.66;5049562;28;20072;-69
2022/06/08 01:28:40;;;;;;;8.75;5.25;;;;;;;15.82;100.00;99981.88;5056531;28;20492;-69
2022/06/08 01:31:20;;;;;;;6.20;4.45;;;;;;;15.76;100.00;99959.16;5050145;28;20041;-68
2022/06/08 01:34:08;;;;;;;6.55;4.90;;;;;;;15.88;100.00;99979.63;5050152;28;20071;-68
2022/06/08 01:36:46;;;;;;;8.02;5.05;;;;;;;15.89;100.00;99973.31;5033020;28;20598;-69
2022/06/08 01:39:47;;;;;;;5.70;4.68;;;;;;;15.85;100.00;99968.31;5050600;28;20170;-69
2022/06/08 01:42:31;;;;;;;;;;;;;;;15.90;100.00;99966.16;5057660;28;20124;-68
2022/06/08 01:45:37;;;;;;;8.10;4.95;;;;;;;15.85;100.00;99966.50;5046755;28;19921;-68
2022/06/08 01:48:26;;;;;;;8.10;5.25;;;;;;;15.85;100.00;99968.31;5050649;28;20452;-71
2022/06/08 01:51:01;;;;;;;8.70;5.57;;;;;;;15.83;100.00;99962.22;5041608;28;20053;-70
2022/06/08 01:53:48;;;;;;;5.68;4.75;;;;;;;15.81;100.00;99945.47;5055601;28;20045;-70
2022/06/08 01:56:29;;;;;;;9.55;5.18;;;;;;;15.83;100.00;99944.41;5051471;28;20462;-69
2022/06/08 01:59:23;;;;;;;5.95;4.53;;;;;;;15.89;100.00;99956.44;5054241;28;20055;-68
2022/06/08 02:02:11;;;;;;;5.40;4.90;;;;;;;15.75;100.00;99946.78;5044674;28;20106;-70
2022/06/08 02:04:50;;;;;;;6.30;5.57;;;;;;;15.65;100.00;99946.63;5055362;28;20484;-69
2022/06/08 02:07:43;;;;;;;7.22;5.20;;;;;;;15.54;100.00;99941.22;5055598;28;20052;-70
2022/06/08 02:10:15;;;;;;;6.55;5.85;;;;;;;15.34;100.00;99921.34;5058222;28;20804;-69
2022/06/08 02:12:49;;;;;;;7.35;5.47;;;;;;;15.39;100.00;99945.88;5044761;28;20437;-69
2022/06/08 02:15:21;;;;;;;6.93;5.60;;;;;;;15.36;100.00;99929.25;5049052;28;20084;-69
2022/06/08 02:17:57;;;;;;;7.55;5.57;;;;;;;15.42;100.00;99934.13;5049430;28;20049;-69
2022/06/08 02:20:31;;;;;;;6.78;5.63;;;;;;;15.39;100.00;99924.53;5053132;28;20106;-69
2022/06/08 02:23:08;;;;;;;7.30;5.40;;;;;;;15.30;100.00;99903.00;5043966;28;20048;-69
2022/06/08 02:25:46;;;;;;;7.15;5.60;;;;;;;15.45;100.00;99920.53;5053199;28;20064;-69
2022/06/08 02:28:27;;;;;;;7.50;5.38;;;;;;;15.40;100.00;99923.56;5054466;28;20543;-69
2022/06/08 02:31:21;;;;;;;6.97;5.03;;;;;;;15.33;100.00;99886.78;5048575;28;20095;-70
2022/06/08 02:36:50;;;;;;;5.90;5.05;;;;;;;15.57;100.00;99901.00;5052690;28;20399;-70
2022/06/08 02:39:29;;;;;;;8.38;5.13;;;;;;;15.68;100.00;99897.50;5052678;28;20094;-69
2022/06/08 02:42:05;;;;;;;6.60;5.05;;;;;;;15.73;100.00;99896.19;5054998;28;20084;-71
2022/06/08 02:44:34;;;;;;;5.68;4.80;;;;;;;15.77;100.00;99886.13;5050921;28;20168;-68
2022/06/08 02:47:27;;;;;;;6.85;5.07;;;;;;;15.92;100.00;99886.75;5049583;28;20045;-69
2022/06/08 02:49:54;;;;;;;5.40;4.60;;;;;;;15.93;100.00;99883.97;5050152;28;20041;-68
2022/06/08 02:52:23;;;;;;;7.28;4.90;;;;;;;15.94;100.00;99880.34;5050177;28;20142;-68
2022/06/08 02:54:51;;;;;;;6.17;4.43;;;;;;;15.94;100.00;99874.13;5054562;28;21261;-70
2022/06/08 02:57:28;;;;;;;6.18;4.90;;;;;;;15.99;100.00;99874.66;5051388;28;20064;-69
2022/06/08 03:00:12;;;;;;;8.55;4.80;;;;;;;16.06;100.00;99874.03;5052960;28;20045;-68
2022/06/08 03:02:46;;;;;;;5.78;4.53;;;;;;;16.06;99.98;99870.50;5048316;28;20056;-68
2022/06/08 03:05:21;;;;;;;6.45;4.82;;;;;;;15.98;99.97;99888.97;5042939;28;20687;-70
2022/06/08 03:08:09;;;;;;;9.00;5.30;;;;;;;15.85;100.00;99906.91;5041403;28;20076;-68
2022/06/08 03:10:40;;;;;;;8.45;5.35;;;;;;;15.73;100.00;99906.03;5048182;28;20090;-68
2022/06/08 03:13:18;;;;;;;6.47;5.50;;;;;;;15.28;100.00;99856.91;5055017;28;20434;-68
2022/06/08 03:15:57;;;;;;;7.95;6.03;;;;;;;15.48;100.00;99912.31;5045088;28;20048;-69
2022/06/08 03:18:24;;;;;;;7.85;5.50;;;;;;;15.38;100.00;99906.81;5046654;28;20124;-68
2022/06/08 03:20:52;;;;;;;9.02;5.70;;;;;;;15.37;100.00;99899.78;5056446;28;20587;-68
2022/06/08 03:23:19;;;;;;;9.02;5.22;;;;;;;15.38;100.00;99896.16;5041841;28;20102;-68
2022/06/08 03:25:46;;;;;;;10.00;5.55;;;;;;;15.37;100.00;99905.13;5049417;28;20116;-69
2022/06/08 03:28:14;;;;;;;8.05;5.78;;;;;;;15.21;100.00;99887.69;5048645;28;20044;-69
2022/06/08 03:30:43;;;;;;;9.77;5.93;;;;;;;15.29;100.00;99903.97;5046022;28;20040;-68
2022/06/08 03:33:11;;;;;;;8.60;5.63;;;;;;;15.25;100.00;99899.84;5049234;28;20052;-69
2022/06/08 03:35:39;;;;;;;7.25;5.65;;;;;;;15.27;100.00;99900.56;5045961;28;20071;-68
2022/06/08 03:38:07;;;;;;;7.70;5.57;;;;;;;15.25;100.00;99889.19;5043761;28;20200;-70
2022/06/08 03:40:35;;;;;;;8.02;6.10;;;;;;;15.13;100.00;99874.06;5049778;28;20053;-68
2022/06/08 03:43:01;;;;;;;7.93;5.75;;;;;;;15.23;100.00;99893.78;5045636;28;20068;-68
2022/06/08 03:45:38;;;;;;;9.35;6.63;;;;;;;15.25;100.00;99897.19;5048033;28;20103;-69
2022/06/08 03:48:06;;;;;;;7.60;5.95;;;;;;;15.21;100.00;99893.03;5046278;28;20107;-67
2022/06/08 03:50:33;;;;;;;7.40;5.80;;;;;;;15.11;100.00;99876.84;5052092;28;20131;-68
2022/06/08 03:53:04;;;;;;;8.57;5.85;;;;;;;15.27;100.00;99897.88;5043863;28;20453;-69
2022/06/08 03:55:34;;;;;;;14.23;10.10;;;;;;;15.21;100.00;99885.88;5051368;28;20048;-69
2022/06/08 03:58:02;;;;;;;7.90;5.93;;;;;;;15.29;100.00;99898.63;5045089;28;20099;-70
2022/06/08 04:00:29;;;;;;;8.95;5.97;;;;;;;15.24;100.00;99882.13;5047588;28;20045;-68
2022/06/08 04:02:57;;;;;;;8.57;6.15;;;;;;;15.31;100.00;99896.72;5048339;28;20099;-68
2022/06/08 04:05:27;;;;;;;;;;;;;;;15.36;100.00;99899.91;5047940;28;20130;-68
2022/06/08 04:07:53;;;;;;;9.25;5.93;;;;;;;15.39;100.00;99894.34;5056305;28;19921;-69
2022/06/08 04:10:20;;;;;;;7.07;5.68;;;;;;;15.30;100.00;99874.50;5043504;28;20065;-69
2022/06/08 04:12:47;;;;;;;7.68;5.90;;;;;;;15.40;100.00;99898.72;5045630;28;20048;-69
2022/06/08 04:15:41;;;;;;;9.63;5.97;;;;;;;15.33;100.00;99884.13;5048737;28;20144;-69
2022/06/08 04:18:00;;;;;;;9.98;6.03;;;;;;;15.36;100.00;99875.88;5042262;28;20048;-68
2022/06/08 04:20:27;;;;;;;10.60;6.15;;;;;;;15.37;100.00;99881.09;5045540;28;20044;-68
2022/06/08 04:22:54;;;;;;;8.55;6.50;;;;;;;15.53;100.00;99890.63;5046278;28;20048;-69
2022/06/08 04:25:20;;;;;;;8.40;5.88;;;;;;;15.50;100.00;99896.19;5047932;28;20040;-69
2022/06/08 04:27:47;;;;;;;9.27;6.55;;;;;;;15.49;100.00;99899.81;5051498;28;20065;-68
2022/06/08 04:30:14;;;;;;;8.85;5.97;;;;;;;15.41;100.00;99903.09;5049263;28;20045;-68
2022/06/08 04:32:40;;;;;;;8.77;6.40;;;;;;;15.37;100.00;99910.47;5039508;28;20441;-68
2022/06/08 04:35:07;;;;;;;9.15;6.80;;;;;;;15.34;100.00;99904.50;5051224;28;20102;-67
2022/06/08 04:37:37;;;;;;;8.35;6.78;;;;;;;15.21;100.00;99896.56;5034299;28;20060;-68
2022/06/08 04:40:09;;;;;;;8.27;6.20;;;;;;;15.14;100.00;99884.63;5046046;28;20079;-67
2022/06/08 04:42:36;;;;;;;10.52;6.60;;;;;;;15.27;100.00;99904.09;5053152;28;20045;-68
2022/06/08 04:45:06;;;;;;;8.65;6.05;;;;;;;15.27;100.00;99903.22;5050986;28;20071;-68
2022/06/08 04:47:32;;;;;;;9.77;6.90;;;;;;;15.32;100.00;99904.59;5052488;28;20045;-69
2022/06/08 04:49:59;;;;;;;11.15;7.00;;;;;;;15.30;100.00;99893.19;5046844;28;20056;-68
2022/06/08 04:52:27;;;;;;;8.80;6.22;;;;;;;15.52;100.00;99903.13;5044122;28;20040;-68
2022/06/08 04:54:54;;;;;;;8.98;6.15;;;;;;;15.50;100.00;99873.03;5060145;28;20784;-67
2022/06/08 04:57:21;;;;;;;9.75;6.13;;;;;;;15.60;100.00;99902.56;5047994;28;20134;-68
2022/06/08 04:59:47;;;;;;;7.88;6.78;;;;;;;15.51;100.00;99900.56;5056368;28;20079;-68
2022/06/08 05:02:42;;;;;;;8.85;6.65;;;;;;;15.47;100.00;99907.09;5041203;28;20044;-69
2022/06/08 05:05:01;;;;;;;9.93;6.60;;;;;;;15.40;100.00;99890.72;5043622;28;20056;-67
2022/06/08 05:07:27;;;;;;;10.82;6.72;;;;;;;15.48;100.00;99904.31;5048281;28;20067;-67
2022/06/08 05:09:55;;;;;;;8.20;6.40;;;;;;;15.50;100.00;99906.88;5043974;28;20489;-67
2022/06/08 05:12:21;;;;;;;8.40;6.60;;;;;;;15.40;100.00;99888.03;5046403;28;20049;-68
2022/06/08 05:14:48;;;;;;;9.05;6.30;;;;;;;15.52;100.00;99908.47;5055205;28;20048;-68
2022/06/08 05:17:15;;;;;;;9.88;6.50;;;;;;;15.44;100.00;99885.00;5049631;28;20128;-68
2022/06/08 05:19:41;;;;;;;9.30;6.07;;;;;;;15.50;100.00;99899.72;5051138;28;20044;-66
2022/06/08 05:22:08;;;;;;;9.93;7.05;;;;;;;15.42;100.00;99876.25;5050147;28;20531;-67
2022/06/08 05:24:35;;;;;;;11.00;6.45;;;;;;;15.58;100.00;99897.38;5039293;28;20062;-67
2022/06/08 05:27:01;;;;;;;8.32;6.50;;;;;;;15.62;100.00;99897.97;5036280;28;20064;-68
2022/06/08 05:29:28;;;;;;;9.55;5.90;;;;;;;15.70;100.00;99892.91;5055256;28;20102;-68
2022/06/08 05:31:55;;;;;;;9.65;6.78;;;;;;;15.77;99.42;99894.97;5054355;28;20140;-67
2022/06/08 05:34:22;;;;;;;10.32;7.00;;;;;;;15.61;98.90;99870.41;5051124;28;20053;-68
2022/06/08 05:36:49;;;;;;;8.63;6.75;;;;;;;15.75;99.48;99888.91;5051666;28;20080;-68
2022/06/08 05:39:15;;;;;;;10.93;7.00;;;;;;;15.72;98.81;99877.63;5046493;28;20102;-68
2022/06/08 05:41:42;;;;;;;10.77;6.88;;;;;;;15.80;98.23;99888.56;5053524;28;20106;-67
2022/06/08 05:44:09;;;;;;;8.15;6.82;;;;;;;15.83;98.32;99884.81;5046000;28;20053;-68
2022/06/08 05:46:36;;;;;;;7.32;6.18;;;;;;;15.93;98.03;99889.31;5057118;28;20072;-67
2022/06/08 05:49:03;;;;;;;10.70;6.95;;;;;;;16.00;97.47;99876.34;5044696;28;20053;-68
2022/06/08 05:51:30;;;;;;;10.95;6.80;;;;;;;16.10;96.62;99880.00;5047683;28;20045;-67
2022/06/08 05:53:57;;;;;;;7.53;6.18;;;;;;;16.19;96.14;99875.78;5040621;28;20061;-67
2022/06/08 05:56:23;;;;;;;8.60;6.50;;;;;;;16.37;95.32;99883.16;5047770;28;20075;-67
2022/06/08 05:58:57;;;;;;;9.40;6.30;;;;;;;16.59;94.43;99879.66;5049140;28;20057;-68
2022/06/08 06:01:24;;;;;;;11.18;6.45;;;;;;;16.83;93.89;99883.06;5049141;28;20057;-68
2022/06/08 06:03:52;;;;;;;12.13;6.63;;;;;;;17.13;90.45;99878.88;5044610;28;20597;-67
2022/06/08 06:06:19;;;;;;;11.65;5.85;;;;;;;17.32;88.54;99873.66;5052441;28;20056;-68
2022/06/08 06:08:46;;;;;;;9.30;6.20;;;;;;;17.51;87.10;99878.34;5043808;28;20076;-68
2022/06/08 06:11:13;;;;;;;10.05;6.35;;;;;;;17.63;85.94;99882.66;5054746;28;20576;-67
2022/06/08 06:13:41;;;;;;;10.23;5.93;;;;;;;17.76;85.35;99886.06;5051161;28;20107;-69
2022/06/08 06:16:09;;;;;;;7.47;5.15;;;;;;;17.92;84.69;99879.41;5044761;28;20057;-66
2022/06/08 06:18:36;;;;;;;9.57;5.57;;;;;;;18.02;82.03;99882.97;5050287;28;20062;-67
2022/06/08 06:21:03;;;;;;;8.80;6.28;;;;;;;18.07;81.63;99870.03;5049845;28;20055;-67
2022/06/08 06:23:29;;;;;;;9.50;5.38;;;;;;;18.27;81.30;99887.91;5044050;28;20084;-67
2022/06/08 06:25:56;;;;;;;8.75;5.20;;;;;;;18.48;79.79;99885.19;5058358;28;20068;-68
2022/06/08 06:28:22;;;;;;;10.23;5.82;;;;;;;18.56;78.28;99863.94;5050916;28;20088;-68
2022/06/08 06:30:49;;;;;;;8.27;5.43;;;;;;;18.88;77.80;99882.56;5050365;28;20080;-70
2022/06/08 06:33:16;;;;;;;9.18;5.13;;;;;;;18.96;77.55;99882.69;5047162;28;20055;-68
2022/06/08 06:35:43;;;;;;;6.68;5.50;;;;;;;19.08;77.16;99884.28;5039066;28;20088;-69
2022/06/08 06:38:10;;;;;;;10.48;6.63;;;;;;;19.32;75.58;99889.25;5043688;28;20077;-68
2022/06/08 06:40:37;;;;;;;13.30;8.27;;;;;;;19.53;73.91;99878.41;5050529;28;20447;-68
2022/06/08 06:43:05;;;;;;;7.93;6.10;;;;;;;19.39;72.93;99876.09;5046171;28;20065;-69
2022/06/08 06:45:31;;;;;;;8.65;5.97;;;;;;;19.07;74.68;99871.00;5046911;28;20075;-68
2022/06/08 06:47:58;;;;;;;7.47;5.45;;;;;;;18.97;75.58;99879.03;5047361;28;20049;-68
2022/06/08 06:50:25;;;;;;;8.63;6.18;;;;;;;18.61;76.45;99874.25;5047603;28;20052;-67
2022/06/08 06:52:53;;;;;;;8.63;6.55;;;;;;;18.45;78.76;99866.69;5046326;28;20063;-68
2022/06/08 06:55:26;;;;;;;8.05;5.88;;;;;;;18.76;79.71;99846.06;5039994;28;20110;-68
2022/06/08 06:57:54;;;;;;;10.05;6.00;;;;;;;19.31;76.40;99865.25;5038403;28;20091;-67
2022/06/08 07:00:21;;;;;;;8.90;6.13;;;;;;;19.67;75.86;99863.72;5052309;28;20138;-68
2022/06/08 07:02:47;;;;;;;9.85;5.93;;;;;;;20.02;72.60;99857.69;5050470;28;20087;-70
2022/06/08 07:05:21;;;;;;;8.27;5.50;;;;;;;20.35;70.91;99848.25;5047272;28;20067;-68
2022/06/08 07:07:48;;;;;;;8.75;5.65;;;;;;;20.39;71.48;99866.69;5045351;28;20045;-69
2022/06/08 07:10:16;;;;;;;7.57;6.30;;;;;;;20.04;71.46;99858.41;5043902;28;20049;-67
2022/06/08 07:12:43;;;;;;;11.68;6.07;;;;;;;19.86;72.43;99853.78;5047923;28;20065;-68
2022/06/08 07:15:15;;;;;;;11.30;6.18;;;;;;;19.36;73.18;99863.00;5058676;28;20084;-67
2022/06/08 07:17:42;;;;;;;7.65;5.40;;;;;;;19.21;74.34;99841.91;5053214;28;20121;-68
2022/06/08 07:20:10;;;;;;;8.25;5.85;;;;;;;19.19;74.92;99849.28;5047059;28;20122;-67
2022/06/08 07:22:37;;;;;;;7.25;4.75;;;;;;;19.08;74.54;99832.44;5042735;28;20044;-67
2022/06/08 07:25:06;;;;;;;6.95;4.60;;;;;;;19.31;74.97;99841.06;5052353;28;20586;-68
2022/06/08 07:27:33;;;;;;;6.82;4.05;;;;;;;19.67;73.07;99831.50;5047892;28;20098;-67
2022/06/08 07:29:59;;;;;;;5.45;4.05;;;;;;;20.26;70.77;99833.88;5048509;28;20044;-68
2022/06/08 07:32:27;;;;;;;6.03;3.10;;;;;;;20.95;65.50;99828.84;5054324;28;20080;-67
2022/06/08 07:34:53;;;;;;;6.32;3.10;;;;;;;21.47;61.91;99814.75;5043862;28;20056;-67
2022/06/08 07:37:22;;;;;;;5.93;2.95;;;;;;;21.81;60.44;99812.13;5041540;28;20092;-67
2022/06/08 07:39:49;;;;;;;4.80;2.88;;;;;;;22.25;59.29;99829.97;5052633;28;20439;-69
2022/06/08 07:42:17;;;;;;;6.53;3.67;;;;;;;22.08;60.25;99819.25;5041496;28;20091;-68
2022/06/08 07:44:45;;;;;;;6.63;2.85;;;;;;;21.73;60.19;99810.22;5046381;28;20427;-67
2022/06/08 07:47:12;;;;;;;6.07;2.78;;;;;;;21.27;62.21;99809.50;5042105;28;20556;-68
2022/06/08 07:49:41;;;;;;;8.63;3.08;;;;;;;21.24;63.55;99803.63;5047402;28;20041;-68
2022/06/08 07:52:16;;;;;;;6.95;2.80;;;;;;;21.75;60.97;99789.34;5047645;28;20071;-68
2022/06/08 07:54:43;;;;;;;4.93;3.00;;;;;;;22.35;58.61;99800.19;5048449;28;20396;-68
2022/06/08 07:57:33;;;;;;;4.10;3.08;;;;;;;22.65;58.81;99798.78;5045551;28;20057;-68
2022/06/08 07:59:59;;;;;;;5.00;2.25;;;;;;;22.40;57.25;99792.44;5049838;28;20048;-69
2022/06/08 08:02:26;;;;;;;5.07;2.78;;;;;;;22.67;57.84;99797.59;5049421;28;20479;-69
2022/06/08 08:04:53;;;;;;;9.20;3.20;;;;;;;23.04;56.34;99796.38;5048612;28;20049;-69
2022/06/08 08:07:20;;;;;;;14.27;3.08;;;;;;;22.77;56.13;99793.97;5060763;28;20550;-68
2022/06/08 08:09:48;;;;;;;5.80;2.63;;;;;;;22.77;57.09;99781.31;5050736;28;20053;-68
2022/06/08 08:12:15;;;;;;;4.10;2.42;;;;;;;23.17;55.03;99788.63;5047127;28;20069;-68
2022/06/08 08:14:42;;;;;;;5.03;2.38;;;;;;;23.16;55.97;99783.38;5052884;28;20048;-68
2022/06/08 08:17:09;;;;;;;4.38;2.50;;;;;;;22.93;54.96;99783.19;5047689;28;20083;-68
2022/06/08 08:19:38;;;;;;;4.22;2.45;;;;;;;22.56;57.80;99776.31;5040024;28;20044;-68
2022/06/08 08:22:06;;;;;;;5.18;2.63;;;;;;;22.66;56.14;99777.03;5048955;28;20126;-68
2022/06/08 08:24:33;;;;;;;7.38;2.67;;;;;;;22.77;55.60;99759.72;5048938;28;20071;-69
2022/06/08 08:27:00;;;;;;;5.50;2.53;;;;;;;22.96;54.46;99769.38;5050440;28;20049;-67
2022/06/08 08:29:27;;;;;;;4.15;2.85;;;;;;;22.70;55.57;99751.38;5046501;28;20134;-69
2022/06/08 08:31:54;;;;;;;6.70;2.70;;;;;;;22.23;57.29;99761.00;5045932;28;20057;-67
2022/06/08 08:34:20;;;;;;;6.88;2.50;;;;;;;21.93;57.92;99763.19;5059420;28;20136;-68
2022/06/08 08:36:47;;;;;;;5.68;2.92;;;;;;;22.13;58.01;99752.22;5053851;28;20084;-68
2022/06/08 08:39:15;;;;;;;4.70;2.83;;;;;;;22.55;56.67;99757.59;5054627;28;20049;-69
2022/06/08 08:44:42;;;;;;;5.90;2.40;;;;;;;23.16;54.75;99754.53;5050563;28;20136;-69
2022/06/08 08:47:30;;;;;;;5.20;2.40;;;;;;;22.91;53.50;99755.53;5057355;28;20095;-68
2022/06/08 08:50:22;;;;;;;7.45;2.85;;;;;;;23.11;52.94;99747.94;5047440;28;20102;-68
2022/06/08 08:52:49;;;;;;;5.35;2.30;;;;;;;23.05;51.65;99719.75;5048364;28;20073;-69
2022/06/08 08:55:32;;;;;;;7.72;2.50;;;;;;;23.25;51.84;99733.78;5053815;28;20068;-69
2022/06/08 08:58:08;;;;;;;5.07;2.85;;;;;;;23.34;51.62;99748.94;5054450;28;20072;-68
2022/06/08 09:00:47;;;;;;;7.68;2.95;;;;;;;23.33;51.94;99736.47;5046574;28;20052;-68
2022/06/08 09:03:27;;;;;;;5.20;1.92;;;;;;;23.59;51.29;99737.16;5056988;28;20045;-69
2022/06/08 09:06:00;;;;;;;5.03;2.15;;;;;;;23.77;49.53;99707.19;5053586;28;20052;-68
2022/06/08 09:08:28;;;;;;;4.97;2.33;;;;;;;23.97;49.70;99724.72;5048339;28;20076;-69
2022/06/08 09:10:58;;;;;;;3.20;1.95;;;;;;;23.85;50.04;99736.94;5059094;28;20593;-69
2022/06/08 09:13:43;;;;;;;4.53;2.33;;;;;;;23.98;49.11;99726.41;5050701;28;20052;-68
2022/06/08 09:16:25;;;;;;;7.18;2.92;;;;;;;24.12;49.16;99725.66;5050702;28;20065;-68
2022/06/08 09:18:52;;;;;;;5.82;2.00;;;;;;;24.14;49.44;99725.50;5040336;28;20049;-67
2022/06/08 09:21:35;;;;;;;6.35;1.90;;;;;;;23.86;48.73;99708.03;5049846;28;20159;-69
2022/06/08 09:24:22;;;;;;;6.40;2.30;;;;;;;23.23;50.53;99706.94;5044501;28;20048;-67
2022/06/08 09:27:10;;;;;;;9.68;2.40;;;;;;;23.17;49.85;99712.16;5054330;28;20049;-69
2022/06/08 09:29:53;;;;;;;6.13;1.80;;;;;;;23.18;48.77;99711.97;5049981;28;20106;-68
2022/06/08 09:32:44;;;;;;;6.38;2.25;;;;;;;22.67;51.41;99678.84;5048504;28;20546;-67
2022/06/08 09:35:29;;;;;;;3.83;1.50;;;;;;;22.77;52.07;99710.28;5044614;28;20119;-69
2022/06/08 09:38:06;;;;;;;8.40;2.17;;;;;;;22.87;51.69;99708.25;5050194;28;20044;-68
2022/06/08 09:40:40;;;;;;;5.82;1.85;;;;;;;22.69;50.07;99713.75;5050220;28;20576;-68
2022/06/08 09:43:23;;;;;;;3.15;1.48;;;;;;;22.66;50.53;99709.56;5050057;28;20068;-67
2022/06/08 09:46:03;;;;;;;4.30;1.80;;;;;;;22.44;51.23;99709.34;5050285;28;20045;-69
2022/06/08 09:52:20;;;;;;;5.90;2.22;;;;;;;22.09;53.71;99696.91;5042143;28;20040;-68
2022/06/08 09:54:58;;;;;;;6.25;2.08;;;;;;;22.10;53.94;99699.44;5048337;28;20052;-68
2022/06/08 09:57:54;;;;;;;8.18;2.17;;;;;;;22.38;53.36;99698.19;5048168;28;20366;-68
2022/06/08 10:00:44;;;;;;;10.82;2.95;;;;;;;22.62;53.25;99697.41;5047113;28;20053;-69
2022/06/08 10:03:38;;;;;;;;;;;;;;;22.82;53.00;99694.44;5047444;28;20052;-70
2022/06/08 10:06:15;;;;;;;5.72;1.90;;;;;;;23.00;51.86;99687.84;5046361;28;19963;-67
2022/06/08 10:09:00;;;;;;;5.32;1.70;;;;;;;23.23;49.30;99679.91;5055314;28;20086;-67
2022/06/08 10:11:51;;;;;;;4.78;2.05;;;;;;;23.40;48.95;99688.84;5051001;28;20098;-67
2022/06/08 10:14:51;;;;;;;3.92;1.50;;;;;;;23.64;47.09;99682.56;5030255;28;20057;-67
2022/06/08 10:17:35;;;;;;;5.13;2.08;;;;;;;23.95;46.01;99679.94;5015953;28;20075;-67
2022/06/08 10:20:23;;;;;;;4.63;2.03;;;;;;;24.03;44.80;99678.06;5048314;28;20550;-68
2022/06/08 10:22:54;;;;;;;3.45;1.33;;;;;;;23.94;44.61;99660.16;5043866;28;20492;-68
2022/06/08 10:25:42;;;;;;;5.80;1.70;;;;;;;24.00;45.12;99674.84;5049464;28;20103;-68
2022/06/08 10:28:41;;;;;;;3.83;1.55;;;;;;;23.77;45.24;99674.75;5054828;28;20833;-67
2022/06/08 10:31:44;;;;;;;6.30;1.80;;;;;;;23.35;46.78;99675.84;5051920;28;20045;-69
2022/06/08 10:34:18;;;;;;;8.38;2.00;;;;;;;23.17;47.87;99669.78;5051438;28;20110;-67
2022/06/08 10:36:58;;;;;;;9.10;2.10;;;;;;;22.88;47.83;99675.69;5044125;28;20118;-69
2022/06/08 10:39:27;;;;;;;6.38;1.88;;;;;;;22.69;48.01;99674.13;5053561;28;20045;-68
2022/06/08 10:42:40;;;;;;;4.22;1.90;;;;;;;22.26;47.72;99615.91;5052870;28;20052;-69
2022/06/08 10:45:22;;;;;;;2.88;1.55;;;;;;;22.46;48.84;99667.69;5049838;28;20598;-68
2022/06/08 10:48:11;;;;;;;5.35;1.63;;;;;;;22.46;48.56;99665.00;5050214;28;20052;-67
2022/06/08 10:50:42;;;;;;;9.43;1.90;;;;;;;22.47;48.37;99664.00;5029897;28;20049;-67
2022/06/08 10:56:50;;;;;;;4.85;1.50;;;;;;;22.59;47.46;99646.47;5046026;28;20056;-67
2022/06/08 10:59:27;;;;;;;;;;;;;;;22.84;47.64;99644.66;5051228;28;20045;-69
2022/06/08 11:02:10;;;;;;;3.83;1.20;;;;;;;22.74;46.05;99639.41;5048875;28;19924;-67
2022/06/08 11:04:48;;;;;;;5.55;1.60;;;;;;;23.13;45.65;99633.34;5054238;28;20435;-67
2022/06/08 11:07:18;;;;;;;6.35;1.73;;;;;;;23.60;44.02;99621.78;5043576;28;20049;-67
2022/06/08 11:09:44;;;;;;;2.85;1.33;;;;;;;24.00;43.70;99626.16;5052066;28;20080;-68
2022/06/08 11:12:11;;;;;;;4.10;1.40;;;;;;;24.36;42.76;99623.81;5046325;28;20110;-68
2022/06/08 11:14:44;;;;;;;5.60;1.63;;;;;;;24.84;41.80;99614.47;5048631;28;20060;-68
2022/06/08 11:17:25;;;;;;;2.50;1.10;;;;;;;25.32;40.10;99610.50;5051782;28;20060;-68
2022/06/08 11:19:57;;;;;;;3.53;1.00;;;;;;;25.30;38.28;99609.81;5056432;28;20118;-67
2022/06/08 11:22:29;;;;;;;4.25;0.93;;;;;;;25.12;39.25;99612.88;5048025;28;20127;-68
2022/06/08 11:25:01;;;;;;;3.63;1.17;;;;;;;24.81;38.54;99588.59;5053674;28;20056;-68
2022/06/08 11:27:36;;;;;;;6.40;1.20;;;;;;;24.74;39.28;99601.16;5050189;28;20056;-69
2022/06/08 11:30:23;;;;;;;3.15;0.82;;;;;;;24.77;39.16;99595.41;5047887;28;20053;-69
2022/06/08 11:32:52;;;;;;;5.90;1.23;;;;;;;24.80;39.25;99592.31;5052870;28;20135;-69
2022/06/08 11:35:38;;;;;;;6.28;1.77;;;;;;;24.52;39.79;99561.44;5049025;28;20076;-67
2022/06/08 11:38:32;;;;;;;4.38;1.30;;;;;;;24.27;41.31;99584.28;5049798;28;20045;-68
2022/06/08 11:41:26;;;;;;;6.13;1.20;;;;;;;23.63;42.12;99597.94;5051287;28;20496;-69
2022/06/08 11:43:55;;;;;;;2.40;1.50;;;;;;;23.52;43.29;99589.38;5039470;28;20091;-67
2022/06/08 11:46:36;;;;;;;6.15;1.63;;;;;;;23.54;43.99;99590.03;5047553;28;20057;-69
2022/06/08 11:49:05;;;;;;;3.90;1.40;;;;;;;23.56;42.79;99582.59;5047628;28;20060;-68
2022/06/08 11:51:35;;;;;;;6.53;1.60;;;;;;;23.59;42.78;99584.97;5051884;28;20049;-67
2022/06/08 11:54:32;;;;;;;4.03;1.60;;;;;;;23.60;43.72;99582.09;5051143;28;20496;-68
2022/06/08 11:57:12;;;;;;;5.47;1.48;;;;;;;23.56;43.96;99569.09;5048072;28;20068;-69
2022/06/08 11:59:43;;;;;;;2.97;1.20;;;;;;;23.66;43.44;99583.22;5052778;28;20048;-67
2022/06/08 12:02:22;;;;;;;3.92;1.70;;;;;;;23.60;43.71;99584.78;5051811;28;20571;-67
2022/06/08 12:04:54;;;;;;;6.65;1.50;;;;;;;23.45;43.66;99573.00;5038435;28;20106;-68
2022/06/08 12:07:32;;;;;;;5.47;1.58;;;;;;;23.32;44.29;99576.22;5052914;28;20045;-67
2022/06/08 12:09:59;;;;;;;6.90;1.60;;;;;;;23.19;44.80;99573.22;5048722;28;20409;-68